sensor_id;sensor_type;location;lat;lon;timestamp;pressure;altitude;pressure_sealevel;temperature;humidity
50322;BME280;36227;53.366;-1.426;2023-04-28T00:00:03;75847.53;;;-213.96;100.00
50322;BME280;36227;53.366;-1.426;2023-04-28T00:02:28;75810.13;;;-213.72;100.00
50322;BME280;36227;53.366;-1.426;2023-04-28T00:04:53;75751.77;;;-213.96;100.00
50322;BME280;36227;53.366;-1.426;2023-04-28T00:07:19;75739.64;;;-213.96;100.00
50322;BME280;36227;53.366;-1.426;2023-04-28T00:09:44;75762.51;;;-213.96;100.00
50322;BME280;36227;53.366;-1.426;2023-04-28T00:12:11;75717.79;;;-214.43;100.00
50322;BME280;36227;53.366;-1.426;2023-04-28T00:14:35;75690.50;;;-214.43;100.00
50322;BME280;36227;53.366;-1.426;2023-04-28T00:17:00;75726.00;;;-213.96;100.00
50322;BME280;36227;53.366;-1.426;2023-04-28T00:19:26;75712.35;;;-213.96;100.00
50322;BME280;36227;53.366;-1.426;2023-04-28T00:21:51;75680.14;;;-214.43;100.00
50322;BME280;36227;53.366;-1.426;2023-04-28T00:24:17;75707.05;;;-213.96;100.00
50322;BME280;36227;53.366;-1.426;2023-04-28T00:26:42;75652.47;;;-214.20;100.00
50322;BME280;36227;53.366;-1.426;2023-04-28T00:29:07;75655.38;;;-213.96;100.00
50322;BME280;36227;53.366;-1.426;2023-04-28T00:31:33;75698.33;;;-213.96;100.00
50322;BME280;36227;53.366;-1.426;2023-04-28T00:33:58;75714.37;;;-214.43;100.00
50322;BME280;36227;53.366;-1.426;2023-04-28T00:36:24;75714.63;;;-214.43;100.00
50322;BME280;36227;53.366;-1.426;2023-04-28T00:38:49;75790.43;;;-214.20;100.00
50322;BME280;36227;53.366;-1.426;2023-04-28T00:41:14;75659.93;;;-214.20;100.00
50322;BME280;36227;53.366;-1.426;2023-04-28T00:43:47;75742.42;;;-214.20;100.00
50322;BME280;36227;53.366;-1.426;2023-04-28T00:46:10;75666.12;;;-214.20;100.00
50322;BME280;36227;53.366;-1.426;2023-04-28T00:55:49;75692.01;;;-214.91;100.00
50322;BME280;36227;53.366;-1.426;2023-04-28T01:00:53;75717.28;;;-213.96;100.00
50322;BME280;36227;53.366;-1.426;2023-04-28T01:05:44;75718.80;;;-214.20;100.00
50322;BME280;36227;53.366;-1.426;2023-04-28T01:07:56;75614.19;;;-214.20;100.00
50322;BME280;36227;53.366;-1.426;2023-04-28T01:10:21;75638.70;;;-214.20;100.00
50322;BME280;36227;53.366;-1.426;2023-04-28T01:12:46;75721.83;;;-213.96;100.00
50322;BME280;36227;53.366;-1.426;2023-04-28T01:15:15;75637.31;;;-214.43;100.00
50322;BME280;36227;53.366;-1.426;2023-04-28T01:17:36;75691.63;;;-214.67;100.00
50322;BME280;36227;53.366;-1.426;2023-04-28T01:20:02;75630.24;;;-214.43;100.00
50322;BME280;36227;53.366;-1.426;2023-04-28T01:22:27;75606.99;;;-214.43;100.00
50322;BME280;36227;53.366;-1.426;2023-04-28T01:24:53;75622.66;;;-213.96;100.00
50322;BME280;36227;53.366;-1.426;2023-04-28T01:27:18;75618.11;;;-214.20;100.00
50322;BME280;36227;53.366;-1.426;2023-04-28T01:29:44;75722.97;;;-213.96;100.00
50322;BME280;36227;53.366;-1.426;2023-04-28T01:32:09;75726.88;;;-213.72;100.00
50322;BME280;36227;53.366;-1.426;2023-04-28T01:34:35;75716.90;;;-213.72;100.00
50322;BME280;36227;53.366;-1.426;2023-04-28T01:37:01;75667.76;;;-214.43;100.00
50322;BME280;36227;53.366;-1.426;2023-04-28T01:39:26;75672.56;;;-214.43;100.00
50322;BME280;36227;53.366;-1.426;2023-04-28T01:41:52;75657.15;;;-214.20;100.00
50322;BME280;36227;53.366;-1.426;2023-04-28T01:44:18;75672.56;;;-213.96;100.00
50322;BME280;36227;53.366;-1.426;2023-04-28T01:46:43;75672.05;;;-213.96;100.00
50322;BME280;36227;53.366;-1.426;2023-04-28T01:49:09;75681.91;;;-213.96;100.00
50322;BME280;36227;53.366;-1.426;2023-04-28T01:51:34;75622.66;;;-213.96;100.00
50322;BME280;36227;53.366;-1.426;2023-04-28T01:53:59;75633.90;;;-214.20;100.00
50322;BME280;36227;53.366;-1.426;2023-04-28T01:56:25;75622.15;;;-214.20;100.00
50322;BME280;36227;53.366;-1.426;2023-04-28T01:58:50;75594.49;;;-214.43;100.00
50322;BME280;36227;53.366;-1.426;2023-04-28T02:01:19;75616.22;;;-214.43;100.00
50322;BME280;36227;53.366;-1.426;2023-04-28T02:03:57;75597.14;;;-214.43;100.00
50322;BME280;36227;53.366;-1.426;2023-04-28T02:13:23;75650.20;;;-214.43;100.00
50322;BME280;36227;53.366;-1.426;2023-04-28T02:15:48;75551.79;;;-214.67;100.00
50322;BME280;36227;53.366;-1.426;2023-04-28T02:20:42;75427.86;;;-215.15;100.00
50322;BME280;36227;53.366;-1.426;2023-04-28T02:37:37;75406.64;;;-215.39;100.00
50322;BME280;36227;53.366;-1.426;2023-04-28T02:40:01;75412.07;;;-215.39;100.00
50322;BME280;36227;53.366;-1.426;2023-04-28T02:42:27;75408.66;;;-214.91;100.00
50322;BME280;36227;53.366;-1.426;2023-04-28T02:44:52;75414.35;;;-214.91;100.00
50322;BME280;36227;53.366;-1.426;2023-04-28T02:47:18;75354.85;;;-215.87;100.00
50322;BME280;36227;53.366;-1.426;2023-04-28T02:49:43;75412.83;;;-215.63;100.00
50322;BME280;36227;53.366;-1.426;2023-04-28T02:52:09;75448.20;;;-215.15;100.00
50322;BME280;36227;53.366;-1.426;2023-04-28T02:54:34;75443.40;;;-215.15;100.00
50322;BME280;36227;53.366;-1.426;2023-04-28T02:56:59;75436.33;;;-215.39;100.00
50322;BME280;36227;53.366;-1.426;2023-04-28T02:59:25;75383.78;;;-215.39;100.00
50322;BME280;36227;53.366;-1.426;2023-04-28T03:01:51;75341.71;;;-214.91;100.00
50322;BME280;36227;53.366;-1.426;2023-04-28T03:04:17;75321.12;;;-215.39;100.00
50322;BME280;36227;53.366;-1.426;2023-04-28T03:06:43;75427.61;;;-215.39;100.00
50322;BME280;36227;53.366;-1.426;2023-04-28T03:09:09;75324.66;;;-216.11;100.00
50322;BME280;36227;53.366;-1.426;2023-04-28T03:11:33;75265.16;;;-215.87;100.00
50322;BME280;36227;53.366;-1.426;2023-04-28T03:13:59;75311.90;;;-215.87;100.00
50322;BME280;36227;53.366;-1.426;2023-04-28T03:16:24;75286.64;;;-215.63;100.00
50322;BME280;36227;53.366;-1.426;2023-04-28T03:18:50;75161.84;;;-215.87;100.00
50322;BME280;36227;53.366;-1.426;2023-04-28T03:21:16;75407.78;;;-215.63;100.00
50322;BME280;36227;53.366;-1.426;2023-04-28T03:23:41;75174.97;;;-215.87;100.00
50322;BME280;36227;53.366;-1.426;2023-04-28T03:26:07;75129.12;;;-216.11;100.00
50322;BME280;36227;53.366;-1.426;2023-04-28T03:40:44;75537.77;;;-214.91;100.00
50322;BME280;36227;53.366;-1.426;2023-04-28T03:43:05;75741.79;;;-214.43;100.00
50322;BME280;36227;53.366;-1.426;2023-04-28T03:45:30;75711.72;;;-213.96;100.00
50322;BME280;36227;53.366;-1.426;2023-04-28T03:47:56;75733.83;;;-213.96;100.00
50322;BME280;36227;53.366;-1.426;2023-04-28T03:50:22;75531.45;;;-214.91;100.00
50322;BME280;36227;53.366;-1.426;2023-04-28T03:52:47;75397.04;;;-214.91;100.00
50322;BME280;36227;53.366;-1.426;2023-04-28T03:55:13;75550.27;;;-214.91;100.00
50322;BME280;36227;53.366;-1.426;2023-04-28T03:57:38;75509.09;;;-214.67;100.00
50322;BME280;36227;53.366;-1.426;2023-04-28T04:00:04;75578.95;;;-214.43;100.00
50322;BME280;36227;53.366;-1.426;2023-04-28T04:02:29;75443.15;;;-214.43;100.00
50322;BME280;36227;53.366;-1.426;2023-04-28T04:04:54;75381.88;;;-214.67;100.00
50322;BME280;36227;53.366;-1.426;2023-04-28T04:07:19;75381.13;;;-214.67;100.00
50322;BME280;36227;53.366;-1.426;2023-04-28T04:09:44;75360.66;;;-214.91;100.00
50322;BME280;36227;53.366;-1.426;2023-04-28T04:12:10;75423.06;;;-215.39;100.00
50322;BME280;36227;53.366;-1.426;2023-04-28T04:14:35;75471.57;;;-215.15;100.00
50322;BME280;36227;53.366;-1.426;2023-04-28T04:17:01;75344.62;;;-214.91;100.00
50322;BME280;36227;53.366;-1.426;2023-04-28T04:19:27;75513.13;;;-214.91;100.00
50322;BME280;36227;53.366;-1.426;2023-04-28T04:21:53;75566.70;;;-214.91;100.00
50322;BME280;36227;53.366;-1.426;2023-04-28T04:24:17;75507.95;;;-214.67;100.00
50322;BME280;36227;53.366;-1.426;2023-04-28T04:26:46;75432.41;;;-214.91;100.00
50322;BME280;36227;53.366;-1.426;2023-04-28T04:29:09;75567.71;;;-214.43;100.00
50322;BME280;36227;53.366;-1.426;2023-04-28T04:31:34;75403.36;;;-214.91;100.00
50322;BME280;36227;53.366;-1.426;2023-04-28T04:33:59;75297.63;;;-215.63;100.00
50322;BME280;36227;53.366;-1.426;2023-04-28T04:36:24;75538.02;;;-215.15;100.00
50322;BME280;36227;53.366;-1.426;2023-04-28T04:38:50;75709.45;;;-214.43;100.00
50322;BME280;36227;53.366;-1.426;2023-04-28T04:41:16;75647.55;;;-214.43;100.00
50322;BME280;36227;53.366;-1.426;2023-04-28T04:43:41;75402.98;;;-214.91;100.00
50322;BME280;36227;53.366;-1.426;2023-04-28T04:46:07;75351.82;;;-214.91;100.00
50322;BME280;36227;53.366;-1.426;2023-04-28T04:48:32;75375.19;;;-214.91;100.00
50322;BME280;36227;53.366;-1.426;2023-04-28T04:53:22;75529.93;;;-214.91;100.00
50322;BME280;36227;53.366;-1.426;2023-04-28T04:55:50;75500.88;;;-215.39;100.00
50322;BME280;36227;53.366;-1.426;2023-04-28T04:58:18;75376.45;;;-215.15;100.00
50322;BME280;36227;53.366;-1.426;2023-04-28T05:00:39;75360.66;;;-215.39;100.00
50322;BME280;36227;53.366;-1.426;2023-04-28T05:03:05;75346.89;;;-215.15;100.00
50322;BME280;36227;53.366;-1.426;2023-04-28T05:05:30;75546.99;;;-214.91;100.00
50322;BME280;36227;53.366;-1.426;2023-04-28T05:07:55;75382.89;;;-214.91;100.00
50322;BME280;36227;53.366;-1.426;2023-04-28T05:10:20;75425.34;;;-214.91;100.00
50322;BME280;36227;53.366;-1.426;2023-04-28T05:12:46;75330.72;;;-215.15;100.00
50322;BME280;36227;53.366;-1.426;2023-04-28T05:15:12;75363.06;;;-215.39;100.00
50322;BME280;36227;53.366;-1.426;2023-04-28T05:17:37;75569.47;;;-215.39;100.00
50322;BME280;36227;53.366;-1.426;2023-04-28T05:20:02;75607.75;;;-214.91;100.00
50322;BME280;36227;53.366;-1.426;2023-04-28T05:22:28;75506.56;;;-214.91;100.00
50322;BME280;36227;53.366;-1.426;2023-04-28T05:24:53;75493.05;;;-214.67;100.00
50322;BME280;36227;53.366;-1.426;2023-04-28T05:27:18;75424.33;;;-214.91;100.00
50322;BME280;36227;53.366;-1.426;2023-04-28T05:29:44;75334.64;;;-215.15;100.00
50322;BME280;36227;53.366;-1.426;2023-04-28T05:32:15;75355.74;;;-214.91;100.00
50322;BME280;36227;53.366;-1.426;2023-04-28T05:34:36;75574.40;;;-214.67;100.00
50322;BME280;36227;53.366;-1.426;2023-04-28T05:37:02;75779.94;;;-214.43;100.00
50322;BME280;36227;53.366;-1.426;2023-04-28T05:39:27;75693.53;;;-214.43;100.00
50322;BME280;36227;53.366;-1.426;2023-04-28T05:41:53;75653.99;;;-214.67;100.00
50322;BME280;36227;53.366;-1.426;2023-04-28T05:44:18;75698.84;;;-214.43;100.00
50322;BME280;36227;53.366;-1.426;2023-04-28T05:46:44;75711.97;;;-214.43;100.00
50322;BME280;36227;53.366;-1.426;2023-04-28T05:49:09;75751.26;;;-214.20;100.00
50322;BME280;36227;53.366;-1.426;2023-04-28T05:51:34;75726.63;;;-214.20;100.00
50322;BME280;36227;53.366;-1.426;2023-04-28T05:54:00;75827.70;;;-213.96;100.00
50322;BME280;36227;53.366;-1.426;2023-04-28T05:56:30;75817.21;;;-213.96;100.00
50322;BME280;36227;53.366;-1.426;2023-04-28T05:58:51;75672.31;;;-214.67;100.00
50322;BME280;36227;53.366;-1.426;2023-04-28T06:01:17;75708.06;;;-214.20;100.00
50322;BME280;36227;53.366;-1.426;2023-04-28T06:03:42;75645.52;;;-214.20;100.00
50322;BME280;36227;53.366;-1.426;2023-04-28T06:08:32;75638.70;;;-214.43;100.00
50322;BME280;36227;53.366;-1.426;2023-04-28T06:10:57;75606.36;;;-214.43;100.00
50322;BME280;36227;53.366;-1.426;2023-04-28T06:13:27;75526.02;;;-214.67;100.00
50322;BME280;36227;53.366;-1.426;2023-04-28T06:18:14;75750.51;;;-214.43;100.00
50322;BME280;36227;53.366;-1.426;2023-04-28T06:20:39;75750.38;;;-214.91;100.00
50322;BME280;36227;53.366;-1.426;2023-04-28T06:23:05;75744.82;;;-214.67;100.00
50322;BME280;36227;53.366;-1.426;2023-04-28T06:25:31;75875.32;;;-214.20;100.00
50322;BME280;36227;53.366;-1.426;2023-04-28T06:27:56;75749.62;;;-214.43;100.00
50322;BME280;36227;53.366;-1.426;2023-04-28T06:30:22;75733.45;;;-214.43;100.00
50322;BME280;36227;53.366;-1.426;2023-04-28T06:32:47;75608.89;;;-214.91;100.00
50322;BME280;36227;53.366;-1.426;2023-04-28T06:35:12;75711.34;;;-214.91;100.00
50322;BME280;36227;53.366;-1.426;2023-04-28T06:37:38;75689.99;;;-214.67;100.00
50322;BME280;36227;53.366;-1.426;2023-04-28T06:40:04;75684.81;;;-215.39;100.00
50322;BME280;36227;53.366;-1.426;2023-04-28T06:42:29;75745.58;;;-214.91;100.00
50322;BME280;36227;53.366;-1.426;2023-04-28T06:44:54;75717.66;;;-214.91;100.00
50322;BME280;36227;53.366;-1.426;2023-04-28T06:47:20;75694.67;;;-214.91;100.00
50322;BME280;36227;53.366;-1.426;2023-04-28T06:49:45;75660.18;;;-214.91;100.00
50322;BME280;36227;53.366;-1.426;2023-04-28T06:52:11;75793.21;;;-214.43;100.00
50322;BME280;36227;53.366;-1.426;2023-04-28T06:54:37;75783.10;;;-214.43;100.00
50322;BME280;36227;53.366;-1.426;2023-04-28T06:57:02;75775.77;;;-214.20;100.00
50322;BME280;36227;53.366;-1.426;2023-04-28T06:59:28;75754.42;;;-214.20;100.00
50322;BME280;36227;53.366;-1.426;2023-04-28T07:01:53;75801.54;;;-214.91;100.00
50322;BME280;36227;53.366;-1.426;2023-04-28T07:04:19;75853.85;;;-214.67;100.00
50322;BME280;36227;53.366;-1.426;2023-04-28T07:06:44;75851.45;;;-214.20;100.00
50322;BME280;36227;53.366;-1.426;2023-04-28T07:09:10;75784.99;;;-214.43;100.00
50322;BME280;36227;53.366;-1.426;2023-04-28T07:11:35;75783.98;;;-214.43;100.00
50322;BME280;36227;53.366;-1.426;2023-04-28T07:14:01;75783.23;;;-213.96;100.00
50322;BME280;36227;53.366;-1.426;2023-04-28T07:16:27;75785.25;;;-214.20;100.00
50322;BME280;36227;53.366;-1.426;2023-04-28T07:18:52;75778.05;;;-214.20;100.00
50322;BME280;36227;53.366;-1.426;2023-04-28T07:21:18;75750.13;;;-214.43;100.00
50322;BME280;36227;53.366;-1.426;2023-04-28T07:23:44;75802.43;;;-214.91;100.00
50322;BME280;36227;53.366;-1.426;2023-04-28T07:26:08;75702.63;;;-214.91;100.00
50322;BME280;36227;53.366;-1.426;2023-04-28T07:28:34;75670.03;;;-214.67;100.00
50322;BME280;36227;53.366;-1.426;2023-04-28T07:30:59;75665.99;;;-214.67;100.00
50322;BME280;36227;53.366;-1.426;2023-04-28T07:33:25;75705.78;;;-214.91;100.00
50322;BME280;36227;53.366;-1.426;2023-04-28T07:35:51;75717.15;;;-214.67;100.00
50322;BME280;36227;53.366;-1.426;2023-04-28T07:38:16;75720.69;;;-214.43;100.00
50322;BME280;36227;53.366;-1.426;2023-04-28T07:40:42;75650.07;;;-214.67;100.00
50322;BME280;36227;53.366;-1.426;2023-04-28T07:43:08;75752.78;;;-214.20;100.00
50322;BME280;36227;53.366;-1.426;2023-04-28T07:45:34;75815.57;;;-215.15;100.00
50322;BME280;36227;53.366;-1.426;2023-04-28T07:47:58;75784.74;;;-214.67;100.00
50322;BME280;36227;53.366;-1.426;2023-04-28T07:50:24;75849.93;;;-214.43;100.00
50322;BME280;36227;53.366;-1.426;2023-04-28T07:52:49;75867.24;;;-214.43;100.00
50322;BME280;36227;53.366;-1.426;2023-04-28T07:55:14;75933.82;;;-213.96;100.00
50322;BME280;36227;53.366;-1.426;2023-04-28T07:57:40;75866.10;;;-214.20;100.00
50322;BME280;36227;53.366;-1.426;2023-04-28T08:00:07;75810.39;;;-214.20;100.00
50322;BME280;36227;53.366;-1.426;2023-04-28T08:02:31;75866.73;;;-214.20;100.00
50322;BME280;36227;53.366;-1.426;2023-04-28T08:04:57;75851.83;;;-214.43;100.00
50322;BME280;36227;53.366;-1.426;2023-04-28T08:07:22;75757.07;;;-215.39;100.00
50322;BME280;36227;53.366;-1.426;2023-04-28T08:09:48;75772.36;;;-214.91;100.00
50322;BME280;36227;53.366;-1.426;2023-04-28T08:12:12;75808.11;;;-214.67;100.00
50322;BME280;36227;53.366;-1.426;2023-04-28T08:14:38;75875.70;;;-214.20;100.00
50322;BME280;36227;53.366;-1.426;2023-04-28T08:17:04;75919.16;;;-213.96;100.00
50322;BME280;36227;53.366;-1.426;2023-04-28T08:19:29;75911.46;;;-213.96;100.00
50322;BME280;36227;53.366;-1.426;2023-04-28T08:21:55;75798.76;;;-214.20;100.00
50322;BME280;36227;53.366;-1.426;2023-04-28T08:24:21;75793.59;;;-214.43;100.00
50322;BME280;36227;53.366;-1.426;2023-04-28T08:26:47;75722.46;;;-214.91;100.00
50322;BME280;36227;53.366;-1.426;2023-04-28T08:29:12;75923.84;;;-214.91;100.00
50322;BME280;36227;53.366;-1.426;2023-04-28T08:31:37;75797.63;;;-214.67;100.00
50322;BME280;36227;53.366;-1.426;2023-04-28T08:34:03;75834.01;;;-214.43;100.00
50322;BME280;36227;53.366;-1.426;2023-04-28T08:36:28;75704.39;;;-214.91;100.00
50322;BME280;36227;53.366;-1.426;2023-04-28T08:38:54;75694.41;;;-214.91;100.00
50322;BME280;36227;53.366;-1.426;2023-04-28T08:41:19;75756.57;;;-214.43;100.00
50322;BME280;36227;53.366;-1.426;2023-04-28T08:43:46;75774.00;;;-214.43;100.00
50322;BME280;36227;53.366;-1.426;2023-04-28T08:46:11;75839.57;;;-214.20;100.00
50322;BME280;36227;53.366;-1.426;2023-04-28T08:48:39;75807.23;;;-214.91;100.00
50322;BME280;36227;53.366;-1.426;2023-04-28T08:51:01;75754.67;;;-214.91;100.00
50322;BME280;36227;53.366;-1.426;2023-04-28T08:53:27;75791.56;;;-214.91;100.00
50322;BME280;36227;53.366;-1.426;2023-04-28T08:55:54;75864.46;;;-214.20;100.00
50322;BME280;36227;53.366;-1.426;2023-04-28T08:58:18;75898.06;;;-214.20;100.00
50322;BME280;36227;53.366;-1.426;2023-04-28T09:00:44;75897.05;;;-213.96;100.00
50322;BME280;36227;53.366;-1.426;2023-04-28T09:03:09;75831.86;;;-214.43;100.00
50322;BME280;36227;53.366;-1.426;2023-04-28T09:05:36;75831.49;;;-214.43;100.00
50322;BME280;36227;53.366;-1.426;2023-04-28T09:08:01;75825.80;;;-214.43;100.00
50322;BME280;36227;53.366;-1.426;2023-04-28T09:10:26;75795.61;;;-215.15;100.00
50322;BME280;36227;53.366;-1.426;2023-04-28T09:12:52;75879.75;;;-214.67;100.00
50322;BME280;36227;53.366;-1.426;2023-04-28T09:15:27;75837.68;;;-214.67;100.00
50322;BME280;36227;53.366;-1.426;2023-04-28T09:17:48;75857.51;;;-214.20;100.00
50322;BME280;36227;53.366;-1.426;2023-04-28T09:22:33;75769.46;;;-214.43;100.00
50322;BME280;36227;53.366;-1.426;2023-04-28T09:27:26;75981.95;;;-213.24;100.00
50322;BME280;36227;53.366;-1.426;2023-04-28T09:29:52;75875.32;;;-214.20;100.00
50322;BME280;36227;53.366;-1.426;2023-04-28T09:32:16;75928.26;;;-214.67;100.00
50322;BME280;36227;53.366;-1.426;2023-04-28T09:34:43;75931.17;;;-214.20;100.00
50322;BME280;36227;53.366;-1.426;2023-04-28T09:37:13;75946.33;;;-214.20;100.00
50322;BME280;36227;53.366;-1.426;2023-04-28T09:39:31;75843.36;;;-214.43;100.00
50322;BME280;36227;53.366;-1.426;2023-04-28T09:41:56;75872.67;;;-213.96;100.00
50322;BME280;36227;53.366;-1.426;2023-04-28T09:44:22;75773.37;;;-214.67;100.00
50322;BME280;36227;53.366;-1.426;2023-04-28T09:46:47;75800.53;;;-214.43;100.00
50322;BME280;36227;53.366;-1.426;2023-04-28T09:49:13;75768.57;;;-214.67;100.00
50322;BME280;36227;53.366;-1.426;2023-04-28T09:51:39;75775.52;;;-214.91;100.00
50322;BME280;36227;53.366;-1.426;2023-04-28T09:54:05;75817.34;;;-214.91;100.00
50322;BME280;36227;53.366;-1.426;2023-04-28T09:56:32;75756.70;;;-214.91;100.00
50322;BME280;36227;53.366;-1.426;2023-04-28T09:58:56;75768.82;;;-214.43;100.00
50322;BME280;36227;53.366;-1.426;2023-04-28T10:01:20;75656.77;;;-214.91;100.00
50322;BME280;36227;53.366;-1.426;2023-04-28T10:03:46;75693.53;;;-214.91;100.00
50322;BME280;36227;53.366;-1.426;2023-04-28T10:06:11;75718.42;;;-214.91;100.00
50322;BME280;36227;53.366;-1.426;2023-04-28T10:08:37;75732.06;;;-214.91;100.00
50322;BME280;36227;53.366;-1.426;2023-04-28T10:11:02;75745.70;;;-214.43;100.00
50322;BME280;36227;53.366;-1.426;2023-04-28T10:13:29;75751.52;;;-215.15;100.00
50322;BME280;36227;53.366;-1.426;2023-04-28T10:15:53;75808.49;;;-214.91;100.00
50322;BME280;36227;53.366;-1.426;2023-04-28T10:18:19;75773.88;;;-214.43;100.00
50322;BME280;36227;53.366;-1.426;2023-04-28T10:20:46;75686.20;;;-214.91;100.00
50322;BME280;36227;53.366;-1.426;2023-04-28T10:23:35;75777.79;;;-214.67;100.00
50322;BME280;36227;53.366;-1.426;2023-04-28T10:25:47;75762.00;;;-214.91;100.00
50322;BME280;36227;53.366;-1.426;2023-04-28T10:28:03;75694.16;;;-214.91;100.00
50322;BME280;36227;53.366;-1.426;2023-04-28T10:38:07;75700.86;;;-215.15;100.00
50322;BME280;36227;53.366;-1.426;2023-04-28T16:43:47;75867.87;;;-215.39;100.00
50322;BME280;36227;53.366;-1.426;2023-04-28T16:46:13;75730.80;;;-215.87;100.00
50322;BME280;36227;53.366;-1.426;2023-04-28T16:48:37;75814.43;;;-215.39;100.00
50322;BME280;36227;53.366;-1.426;2023-04-28T16:51:05;75741.66;;;-215.39;100.00
50322;BME280;36227;53.366;-1.426;2023-04-28T16:53:28;75711.47;;;-215.39;100.00
50322;BME280;36227;53.366;-1.426;2023-04-28T16:55:54;75760.61;;;-215.39;100.00
50322;BME280;36227;53.366;-1.426;2023-04-28T16:58:19;75766.17;;;-215.39;100.00
50322;BME280;36227;53.366;-1.426;2023-04-28T17:00:44;75753.54;;;-215.39;100.00
50322;BME280;36227;53.366;-1.426;2023-04-28T17:03:10;75730.04;;;-215.39;100.00
50322;BME280;36227;53.366;-1.426;2023-04-28T21:07:52;75848.92;;;-215.87;100.00
50322;BME280;36227;53.366;-1.426;2023-04-28T21:10:17;75859.28;;;-215.87;100.00
50322;BME280;36227;53.366;-1.426;2023-04-28T21:12:41;75877.35;;;-215.87;100.00
50322;BME280;36227;53.366;-1.426;2023-04-28T21:15:08;75893.01;;;-215.39;100.00
50322;BME280;36227;53.366;-1.426;2023-04-28T21:17:33;75864.08;;;-215.39;100.00
50322;BME280;36227;53.366;-1.426;2023-04-28T21:19:59;75828.71;;;-215.87;100.00
50322;BME280;36227;53.366;-1.426;2023-04-28T21:22:25;75791.94;;;-215.63;100.00
50322;BME280;36227;53.366;-1.426;2023-04-28T21:24:50;75814.43;;;-215.63;100.00
50322;BME280;36227;53.366;-1.426;2023-04-28T21:27:16;75902.61;;;-215.15;100.00
50322;BME280;36227;53.366;-1.426;2023-04-28T21:29:41;75923.84;;;-215.87;100.00
50322;BME280;36227;53.366;-1.426;2023-04-28T21:32:07;75953.02;;;-215.39;100.00
50322;BME280;36227;53.366;-1.426;2023-04-28T21:34:32;75926.11;;;-215.39;100.00
50322;BME280;36227;53.366;-1.426;2023-04-28T21:36:58;75946.45;;;-214.91;100.00
50322;BME280;36227;53.366;-1.426;2023-04-28T21:39:23;76012.53;;;-214.91;100.00
50322;BME280;36227;53.366;-1.426;2023-04-28T21:41:50;76015.94;;;-214.91;100.00
50322;BME280;36227;53.366;-1.426;2023-04-28T21:44:14;76000.90;;;-214.91;100.00
50322;BME280;36227;53.366;-1.426;2023-04-28T21:46:39;76013.67;;;-214.67;100.00
50322;BME280;36227;53.366;-1.426;2023-04-28T21:49:05;76034.26;;;-214.67;100.00
50322;BME280;36227;53.366;-1.426;2023-04-28T21:51:30;76057.00;;;-215.39;100.00
50322;BME280;36227;53.366;-1.426;2023-04-28T21:53:55;76116.00;;;-214.91;100.00
50322;BME280;36227;53.366;-1.426;2023-04-28T21:56:20;76094.27;;;-214.67;100.00
50322;BME280;36227;53.366;-1.426;2023-04-28T21:58:45;76094.65;;;-214.43;100.00
50322;BME280;36227;53.366;-1.426;2023-04-28T22:01:11;76105.26;;;-214.43;100.00
50322;BME280;36227;53.366;-1.426;2023-04-28T22:03:36;76108.93;;;-214.43;100.00
50322;BME280;36227;53.366;-1.426;2023-04-28T22:06:01;76102.99;;;-214.43;100.00
50322;BME280;36227;53.366;-1.426;2023-04-28T22:08:28;76092.50;;;-214.43;100.00
50322;BME280;36227;53.366;-1.426;2023-04-28T22:10:53;76036.28;;;-214.67;100.00
50322;BME280;36227;53.366;-1.426;2023-04-28T22:13:18;75937.48;;;-215.87;100.00
50322;BME280;36227;53.366;-1.426;2023-04-28T22:15:45;75912.09;;;-215.63;100.00
50322;BME280;36227;53.366;-1.426;2023-04-28T22:18:10;75830.60;;;-215.39;100.00
50322;BME280;36227;53.366;-1.426;2023-04-28T22:20:35;75803.69;;;-215.87;100.00
50322;BME280;36227;53.366;-1.426;2023-04-28T22:23:01;75830.35;;;-215.87;100.00
50322;BME280;36227;53.366;-1.426;2023-04-28T22:25:27;75781.96;;;-215.63;100.00
50322;BME280;36227;53.366;-1.426;2023-04-28T22:27:53;75787.02;;;-215.39;100.00
50322;BME280;36227;53.366;-1.426;2023-04-28T22:30:19;75797.25;;;-215.87;100.00
50322;BME280;36227;53.366;-1.426;2023-04-28T22:32:44;75845.13;;;-215.87;100.00
50322;BME280;36227;53.366;-1.426;2023-04-28T22:35:10;75871.91;;;-216.11;100.00
50322;BME280;36227;53.366;-1.426;2023-04-28T22:37:35;75848.04;;;-215.87;100.00
50322;BME280;36227;53.366;-1.426;2023-04-28T22:40:01;75841.21;;;-215.87;100.00
50322;BME280;36227;53.366;-1.426;2023-04-28T22:42:25;75772.87;;;-216.11;100.00
50322;BME280;36227;53.366;-1.426;2023-04-28T22:44:50;75783.98;;;-215.87;100.00
50322;BME280;36227;53.366;-1.426;2023-04-28T22:47:16;75790.55;;;-216.11;100.00
50322;BME280;36227;53.366;-1.426;2023-04-28T22:49:42;75734.71;;;-215.87;100.00
50322;BME280;36227;53.366;-1.426;2023-04-28T22:52:07;75704.65;;;-216.11;100.00
50322;BME280;36227;53.366;-1.426;2023-04-28T22:54:33;75738.63;;;-216.11;100.00
50322;BME280;36227;53.366;-1.426;2023-04-28T22:56:59;75708.31;;;-216.59;100.00
50322;BME280;36227;53.366;-1.426;2023-04-28T22:59:24;75696.44;;;-216.11;100.00
50322;BME280;36227;53.366;-1.426;2023-04-28T23:01:51;75703.76;;;-216.35;100.00
50322;BME280;36227;53.366;-1.426;2023-04-28T23:04:16;75690.88;;;-216.11;100.00
50322;BME280;36227;53.366;-1.426;2023-04-28T23:06:41;75764.28;;;-215.87;100.00
50322;BME280;36227;53.366;-1.426;2023-04-28T23:09:07;75775.27;;;-215.87;100.00
50322;BME280;36227;53.366;-1.426;2023-04-28T23:11:40;75716.27;;;-215.87;100.00
50322;BME280;36227;53.366;-1.426;2023-04-28T23:13:57;75695.05;;;-216.11;100.00
50322;BME280;36227;53.366;-1.426;2023-04-28T23:18:48;75599.41;;;-216.83;100.00
50322;BME280;36227;53.366;-1.426;2023-04-28T23:21:13;75631.88;;;-216.83;100.00
50322;BME280;36227;53.366;-1.426;2023-04-28T23:23:39;75646.28;;;-216.59;100.00
50322;BME280;36227;53.366;-1.426;2023-04-28T23:26:04;75772.36;;;-216.35;100.00